sensor_id;sensor_type;location;lat;lon;timestamp;P1;durP1;ratioP1;P2;durP2;ratioP2
52964;SDS011;42923;53.220;6.528;2024-03-08T00:02:14;38.80;;;32.67;;
52964;SDS011;42923;53.220;6.528;2024-03-08T00:04:40;38.42;;;32.63;;
52964;SDS011;42923;53.220;6.528;2024-03-08T00:07:05;40.33;;;32.45;;
52964;SDS011;42923;53.220;6.528;2024-03-08T00:09:32;41.67;;;34.67;;
52964;SDS011;42923;53.220;6.528;2024-03-08T00:11:58;41.78;;;34.53;;
52964;SDS011;42923;53.220;6.528;2024-03-08T00:14:24;39.70;;;32.03;;
52964;SDS011;42923;53.220;6.528;2024-03-08T00:16:50;41.93;;;34.80;;
52964;SDS011;42923;53.220;6.528;2024-03-08T00:19:17;40.80;;;34.47;;
52964;SDS011;42923;53.220;6.528;2024-03-08T00:21:43;45.47;;;35.60;;
52964;SDS011;42923;53.220;6.528;2024-03-08T00:24:10;43.40;;;34.70;;
52964;SDS011;42923;53.220;6.528;2024-03-08T00:26:36;43.53;;;35.10;;
52964;SDS011;42923;53.220;6.528;2024-03-08T00:29:02;41.47;;;32.70;;
52964;SDS011;42923;53.220;6.528;2024-03-08T00:31:28;40.88;;;34.60;;
52964;SDS011;42923;53.220;6.528;2024-03-08T00:33:56;43.42;;;35.63;;
52964;SDS011;42923;53.220;6.528;2024-03-08T00:36:22;45.47;;;35.30;;
52964;SDS011;42923;53.220;6.528;2024-03-08T00:38:48;46.25;;;36.22;;
52964;SDS011;42923;53.220;6.528;2024-03-08T00:41:14;42.42;;;35.78;;
52964;SDS011;42923;53.220;6.528;2024-03-08T00:43:40;43.90;;;35.42;;
52964;SDS011;42923;53.220;6.528;2024-03-08T00:46:05;43.13;;;34.80;;
52964;SDS011;42923;53.220;6.528;2024-03-08T00:48:31;44.03;;;35.73;;
52964;SDS011;42923;53.220;6.528;2024-03-08T00:50:57;42.23;;;36.57;;
52964;SDS011;42923;53.220;6.528;2024-03-08T00:53:22;43.93;;;35.30;;
52964;SDS011;42923;53.220;6.528;2024-03-08T00:55:48;45.27;;;36.13;;
52964;SDS011;42923;53.220;6.528;2024-03-08T00:58:14;44.45;;;35.08;;
52964;SDS011;42923;53.220;6.528;2024-03-08T01:00:40;46.17;;;35.92;;
52964;SDS011;42923;53.220;6.528;2024-03-08T01:03:06;43.25;;;36.05;;
52964;SDS011;42923;53.220;6.528;2024-03-08T01:05:32;45.55;;;35.78;;
52964;SDS011;42923;53.220;6.528;2024-03-08T01:07:58;45.83;;;36.80;;
52964;SDS011;42923;53.220;6.528;2024-03-08T01:10:24;45.67;;;35.67;;
52964;SDS011;42923;53.220;6.528;2024-03-08T01:12:50;43.03;;;36.42;;
52964;SDS011;42923;53.220;6.528;2024-03-08T01:15:15;43.70;;;35.83;;
52964;SDS011;42923;53.220;6.528;2024-03-08T01:17:41;46.58;;;36.83;;
52964;SDS011;42923;53.220;6.528;2024-03-08T01:20:09;44.15;;;36.60;;
52964;SDS011;42923;53.220;6.528;2024-03-08T01:22:37;46.30;;;37.55;;
52964;SDS011;42923;53.220;6.528;2024-03-08T01:25:03;46.60;;;38.78;;
52964;SDS011;42923;53.220;6.528;2024-03-08T01:27:30;46.97;;;37.88;;
52964;SDS011;42923;53.220;6.528;2024-03-08T01:29:56;46.33;;;36.85;;
52964;SDS011;42923;53.220;6.528;2024-03-08T01:32:24;45.88;;;37.25;;
52964;SDS011;42923;53.220;6.528;2024-03-08T01:34:50;42.20;;;36.95;;
52964;SDS011;42923;53.220;6.528;2024-03-08T01:37:16;42.13;;;36.33;;
52964;SDS011;42923;53.220;6.528;2024-03-08T01:39:41;43.47;;;36.83;;
52964;SDS011;42923;53.220;6.528;2024-03-08T01:42:07;47.17;;;37.13;;
52964;SDS011;42923;53.220;6.528;2024-03-08T01:44:33;44.95;;;34.97;;
52964;SDS011;42923;53.220;6.528;2024-03-08T01:46:59;43.05;;;36.55;;
52964;SDS011;42923;53.220;6.528;2024-03-08T01:49:25;44.77;;;36.50;;
52964;SDS011;42923;53.220;6.528;2024-03-08T01:51:53;43.10;;;36.30;;
52964;SDS011;42923;53.220;6.528;2024-03-08T01:54:21;41.47;;;35.05;;
52964;SDS011;42923;53.220;6.528;2024-03-08T01:56:48;40.00;;;33.70;;
52964;SDS011;42923;53.220;6.528;2024-03-08T01:59:14;42.63;;;36.70;;
52964;SDS011;42923;53.220;6.528;2024-03-08T02:01:41;41.53;;;34.45;;
52964;SDS011;42923;53.220;6.528;2024-03-08T02:04:07;41.05;;;35.58;;
52964;SDS011;42923;53.220;6.528;2024-03-08T02:06:33;43.63;;;35.28;;
52964;SDS011;42923;53.220;6.528;2024-03-08T02:08:59;40.85;;;36.00;;
52964;SDS011;42923;53.220;6.528;2024-03-08T02:11:25;44.50;;;35.67;;
52964;SDS011;42923;53.220;6.528;2024-03-08T02:13:51;40.05;;;35.08;;
52964;SDS011;42923;53.220;6.528;2024-03-08T02:16:20;42.60;;;35.25;;
52964;SDS011;42923;53.220;6.528;2024-03-08T02:18:47;43.83;;;35.73;;
52964;SDS011;42923;53.220;6.528;2024-03-08T02:21:13;40.97;;;34.70;;
52964;SDS011;42923;53.220;6.528;2024-03-08T02:23:43;38.55;;;32.20;;
52964;SDS011;42923;53.220;6.528;2024-03-08T02:26:09;40.55;;;34.63;;
52964;SDS011;42923;53.220;6.528;2024-03-08T02:28:35;39.70;;;33.17;;
52964;SDS011;42923;53.220;6.528;2024-03-08T02:31:01;43.05;;;33.35;;
52964;SDS011;42923;53.220;6.528;2024-03-08T02:33:27;39.37;;;33.90;;
52964;SDS011;42923;53.220;6.528;2024-03-08T02:35:54;41.05;;;33.45;;
52964;SDS011;42923;53.220;6.528;2024-03-08T02:38:21;41.90;;;33.53;;
52964;SDS011;42923;53.220;6.528;2024-03-08T02:40:49;38.90;;;33.03;;
52964;SDS011;42923;53.220;6.528;2024-03-08T02:43:17;39.65;;;32.17;;
52964;SDS011;42923;53.220;6.528;2024-03-08T02:45:44;41.55;;;33.53;;
52964;SDS011;42923;53.220;6.528;2024-03-08T02:48:13;37.03;;;32.53;;
52964;SDS011;42923;53.220;6.528;2024-03-08T02:50:40;39.00;;;32.35;;
52964;SDS011;42923;53.220;6.528;2024-03-08T02:53:07;39.07;;;32.50;;
52964;SDS011;42923;53.220;6.528;2024-03-08T02:55:33;38.92;;;32.15;;
52964;SDS011;42923;53.220;6.528;2024-03-08T02:58:01;38.03;;;32.17;;
52964;SDS011;42923;53.220;6.528;2024-03-08T03:00:28;37.77;;;31.53;;
52964;SDS011;42923;53.220;6.528;2024-03-08T03:02:58;40.00;;;33.13;;
52964;SDS011;42923;53.220;6.528;2024-03-08T03:05:24;40.08;;;32.80;;
52964;SDS011;42923;53.220;6.528;2024-03-08T03:07:50;38.33;;;31.43;;
52964;SDS011;42923;53.220;6.528;2024-03-08T03:10:16;38.65;;;30.83;;
52964;SDS011;42923;53.220;6.528;2024-03-08T03:12:43;37.97;;;32.30;;
52964;SDS011;42923;53.220;6.528;2024-03-08T03:15:12;37.00;;;30.25;;
52964;SDS011;42923;53.220;6.528;2024-03-08T03:17:39;37.15;;;31.98;;
52964;SDS011;42923;53.220;6.528;2024-03-08T03:20:08;38.35;;;33.00;;
52964;SDS011;42923;53.220;6.528;2024-03-08T03:22:38;35.72;;;30.75;;
52964;SDS011;42923;53.220;6.528;2024-03-08T03:25:04;39.55;;;31.55;;
52964;SDS011;42923;53.220;6.528;2024-03-08T03:27:31;36.63;;;31.83;;
52964;SDS011;42923;53.220;6.528;2024-03-08T03:29:58;37.92;;;30.80;;
52964;SDS011;42923;53.220;6.528;2024-03-08T03:32:31;36.42;;;30.85;;
52964;SDS011;42923;53.220;6.528;2024-03-08T03:34:58;36.10;;;31.90;;
52964;SDS011;42923;53.220;6.528;2024-03-08T03:37:23;39.50;;;31.80;;
52964;SDS011;42923;53.220;6.528;2024-03-08T03:39:49;37.57;;;31.17;;
52964;SDS011;42923;53.220;6.528;2024-03-08T03:42:18;35.13;;;29.77;;
52964;SDS011;42923;53.220;6.528;2024-03-08T03:44:47;35.83;;;31.10;;
52964;SDS011;42923;53.220;6.528;2024-03-08T03:47:14;36.57;;;31.03;;
52964;SDS011;42923;53.220;6.528;2024-03-08T03:49:41;38.17;;;31.85;;
52964;SDS011;42923;53.220;6.528;2024-03-08T03:52:07;38.25;;;31.45;;
52964;SDS011;42923;53.220;6.528;2024-03-08T03:54:34;40.35;;;32.30;;
52964;SDS011;42923;53.220;6.528;2024-03-08T03:56:59;39.78;;;31.05;;
52964;SDS011;42923;53.220;6.528;2024-03-08T03:59:25;35.35;;;30.67;;
52964;SDS011;42923;53.220;6.528;2024-03-08T04:01:55;37.53;;;30.88;;
52964;SDS011;42923;53.220;6.528;2024-03-08T04:04:21;35.08;;;30.98;;
52964;SDS011;42923;53.220;6.528;2024-03-08T04:06:47;37.47;;;31.87;;
52964;SDS011;42923;53.220;6.528;2024-03-08T04:09:12;38.10;;;30.70;;
52964;SDS011;42923;53.220;6.528;2024-03-08T04:11:39;40.08;;;31.30;;
52964;SDS011;42923;53.220;6.528;2024-03-08T04:14:04;35.88;;;30.00;;
52964;SDS011;42923;53.220;6.528;2024-03-08T04:16:30;36.67;;;30.50;;
52964;SDS011;42923;53.220;6.528;2024-03-08T04:18:57;36.42;;;30.80;;
52964;SDS011;42923;53.220;6.528;2024-03-08T04:21:23;36.42;;;30.00;;
52964;SDS011;42923;53.220;6.528;2024-03-08T04:23:49;34.28;;;30.30;;
52964;SDS011;42923;53.220;6.528;2024-03-08T04:26:15;35.28;;;30.35;;
52964;SDS011;42923;53.220;6.528;2024-03-08T04:28:40;34.73;;;29.53;;
52964;SDS011;42923;53.220;6.528;2024-03-08T04:31:06;33.50;;;29.87;;
52964;SDS011;42923;53.220;6.528;2024-03-08T04:33:32;37.10;;;29.58;;
52964;SDS011;42923;53.220;6.528;2024-03-08T04:36:00;35.38;;;29.83;;
52964;SDS011;42923;53.220;6.528;2024-03-08T04:38:29;34.88;;;29.52;;
52964;SDS011;42923;53.220;6.528;2024-03-08T04:40:56;34.45;;;29.15;;
52964;SDS011;42923;53.220;6.528;2024-03-08T04:43:22;35.22;;;31.38;;
52964;SDS011;42923;53.220;6.528;2024-03-08T04:45:51;37.85;;;30.35;;
52964;SDS011;42923;53.220;6.528;2024-03-08T04:48:18;36.40;;;30.67;;
52964;SDS011;42923;53.220;6.528;2024-03-08T04:50:45;35.80;;;29.90;;
52964;SDS011;42923;53.220;6.528;2024-03-08T04:53:11;35.40;;;29.67;;
52964;SDS011;42923;53.220;6.528;2024-03-08T04:55:37;35.20;;;30.90;;
52964;SDS011;42923;53.220;6.528;2024-03-08T04:58:03;34.17;;;29.10;;
52964;SDS011;42923;53.220;6.528;2024-03-08T05:00:31;37.28;;;31.17;;
52964;SDS011;42923;53.220;6.528;2024-03-08T05:02:57;34.28;;;29.88;;
52964;SDS011;42923;53.220;6.528;2024-03-08T05:05:23;35.67;;;28.73;;
52964;SDS011;42923;53.220;6.528;2024-03-08T05:07:50;32.95;;;27.95;;
52964;SDS011;42923;53.220;6.528;2024-03-08T05:10:15;36.67;;;29.05;;
52964;SDS011;42923;53.220;6.528;2024-03-08T05:12:43;34.57;;;29.87;;
52964;SDS011;42923;53.220;6.528;2024-03-08T05:15:09;34.45;;;29.90;;
52964;SDS011;42923;53.220;6.528;2024-03-08T05:17:35;36.00;;;30.87;;
52964;SDS011;42923;53.220;6.528;2024-03-08T05:20:01;35.25;;;28.50;;
52964;SDS011;42923;53.220;6.528;2024-03-08T05:22:27;34.55;;;28.38;;
52964;SDS011;42923;53.220;6.528;2024-03-08T05:24:53;33.83;;;28.60;;
52964;SDS011;42923;53.220;6.528;2024-03-08T05:27:18;32.65;;;28.35;;
52964;SDS011;42923;53.220;6.528;2024-03-08T05:29:44;31.95;;;28.15;;
52964;SDS011;42923;53.220;6.528;2024-03-08T05:32:11;34.80;;;29.17;;
52964;SDS011;42923;53.220;6.528;2024-03-08T05:34:37;33.78;;;28.20;;
52964;SDS011;42923;53.220;6.528;2024-03-08T05:37:03;33.50;;;28.83;;
52964;SDS011;42923;53.220;6.528;2024-03-08T05:39:29;33.03;;;28.75;;
52964;SDS011;42923;53.220;6.528;2024-03-08T05:41:55;31.52;;;28.00;;
52964;SDS011;42923;53.220;6.528;2024-03-08T05:44:21;33.10;;;28.27;;
52964;SDS011;42923;53.220;6.528;2024-03-08T05:46:47;32.35;;;27.42;;
52964;SDS011;42923;53.220;6.528;2024-03-08T05:49:13;31.30;;;26.87;;
52964;SDS011;42923;53.220;6.528;2024-03-08T05:51:39;34.50;;;28.75;;
52964;SDS011;42923;53.220;6.528;2024-03-08T05:54:06;32.93;;;28.40;;
52964;SDS011;42923;53.220;6.528;2024-03-08T05:56:35;35.05;;;27.85;;
52964;SDS011;42923;53.220;6.528;2024-03-08T05:59:02;33.10;;;27.77;;
52964;SDS011;42923;53.220;6.528;2024-03-08T06:01:28;37.17;;;30.50;;
52964;SDS011;42923;53.220;6.528;2024-03-08T06:03:54;34.63;;;27.87;;
52964;SDS011;42923;53.220;6.528;2024-03-08T06:06:22;38.63;;;31.48;;
52964;SDS011;42923;53.220;6.528;2024-03-08T06:08:48;34.90;;;30.00;;
52964;SDS011;42923;53.220;6.528;2024-03-08T06:11:14;36.60;;;29.02;;
52964;SDS011;42923;53.220;6.528;2024-03-08T06:13:43;42.70;;;33.70;;
52964;SDS011;42923;53.220;6.528;2024-03-08T06:16:09;62.83;;;44.97;;
52964;SDS011;42923;53.220;6.528;2024-03-08T06:18:35;41.90;;;31.40;;
52964;SDS011;42923;53.220;6.528;2024-03-08T06:21:07;33.70;;;28.00;;
52964;SDS011;42923;53.220;6.528;2024-03-08T06:23:34;36.28;;;29.75;;
52964;SDS011;42923;53.220;6.528;2024-03-08T06:26:06;55.33;;;44.20;;
52964;SDS011;42923;53.220;6.528;2024-03-08T06:28:32;36.67;;;27.95;;
52964;SDS011;42923;53.220;6.528;2024-03-08T06:30:59;40.58;;;33.00;;
52964;SDS011;42923;53.220;6.528;2024-03-08T06:33:26;46.83;;;37.47;;
52964;SDS011;42923;53.220;6.528;2024-03-08T06:35:55;54.05;;;44.58;;
52964;SDS011;42923;53.220;6.528;2024-03-08T06:38:23;32.47;;;27.13;;
52964;SDS011;42923;53.220;6.528;2024-03-08T06:40:50;32.20;;;28.02;;
52964;SDS011;42923;53.220;6.528;2024-03-08T06:43:16;34.47;;;30.77;;
52964;SDS011;42923;53.220;6.528;2024-03-08T06:45:43;31.05;;;26.75;;
52964;SDS011;42923;53.220;6.528;2024-03-08T06:48:15;35.10;;;29.83;;
52964;SDS011;42923;53.220;6.528;2024-03-08T06:50:42;33.83;;;27.02;;
52964;SDS011;42923;53.220;6.528;2024-03-08T06:53:12;34.78;;;27.45;;
52964;SDS011;42923;53.220;6.528;2024-03-08T06:55:44;31.33;;;26.23;;
52964;SDS011;42923;53.220;6.528;2024-03-08T06:58:10;29.50;;;25.55;;
52964;SDS011;42923;53.220;6.528;2024-03-08T07:00:36;30.42;;;25.60;;
52964;SDS011;42923;53.220;6.528;2024-03-08T07:03:03;31.05;;;26.38;;
52964;SDS011;42923;53.220;6.528;2024-03-08T07:05:32;29.70;;;25.88;;
52964;SDS011;42923;53.220;6.528;2024-03-08T07:07:58;28.55;;;24.50;;
52964;SDS011;42923;53.220;6.528;2024-03-08T07:10:24;27.98;;;23.25;;
52964;SDS011;42923;53.220;6.528;2024-03-08T07:12:51;29.73;;;25.73;;
52964;SDS011;42923;53.220;6.528;2024-03-08T07:15:18;29.88;;;25.85;;
52964;SDS011;42923;53.220;6.528;2024-03-08T07:17:48;30.73;;;25.42;;
52964;SDS011;42923;53.220;6.528;2024-03-08T07:20:14;28.23;;;25.15;;
52964;SDS011;42923;53.220;6.528;2024-03-08T07:22:44;28.40;;;23.60;;
52964;SDS011;42923;53.220;6.528;2024-03-08T07:25:12;29.80;;;25.05;;
52964;SDS011;42923;53.220;6.528;2024-03-08T07:27:48;26.97;;;24.03;;
52964;SDS011;42923;53.220;6.528;2024-03-08T07:30:14;28.45;;;23.95;;
52964;SDS011;42923;53.220;6.528;2024-03-08T07:33:00;29.45;;;24.33;;
52964;SDS011;42923;53.220;6.528;2024-03-08T07:35:27;25.80;;;22.13;;
52964;SDS011;42923;53.220;6.528;2024-03-08T07:37:54;27.48;;;23.35;;
52964;SDS011;42923;53.220;6.528;2024-03-08T07:40:22;26.58;;;23.77;;
52964;SDS011;42923;53.220;6.528;2024-03-08T07:42:48;28.70;;;24.92;;
52964;SDS011;42923;53.220;6.528;2024-03-08T07:45:15;28.00;;;25.08;;
52964;SDS011;42923;53.220;6.528;2024-03-08T07:47:41;27.00;;;24.20;;
52964;SDS011;42923;53.220;6.528;2024-03-08T07:50:07;28.75;;;25.65;;
52964;SDS011;42923;53.220;6.528;2024-03-08T07:52:36;35.47;;;29.60;;
52964;SDS011;42923;53.220;6.528;2024-03-08T07:55:02;37.53;;;30.60;;
52964;SDS011;42923;53.220;6.528;2024-03-08T07:57:31;27.25;;;24.10;;
52964;SDS011;42923;53.220;6.528;2024-03-08T07:59:58;28.60;;;25.30;;
52964;SDS011;42923;53.220;6.528;2024-03-08T08:02:24;27.08;;;23.17;;
52964;SDS011;42923;53.220;6.528;2024-03-08T08:04:50;27.38;;;23.50;;
52964;SDS011;42923;53.220;6.528;2024-03-08T08:07:15;27.67;;;23.20;;
52964;SDS011;42923;53.220;6.528;2024-03-08T08:09:41;27.63;;;23.70;;
52964;SDS011;42923;53.220;6.528;2024-03-08T08:12:10;25.15;;;22.45;;
52964;SDS011;42923;53.220;6.528;2024-03-08T08:14:40;24.37;;;21.80;;
52964;SDS011;42923;53.220;6.528;2024-03-08T08:17:06;26.17;;;22.50;;
52964;SDS011;42923;53.220;6.528;2024-03-08T08:19:34;27.55;;;23.83;;
52964;SDS011;42923;53.220;6.528;2024-03-08T08:22:04;27.98;;;24.25;;
52964;SDS011;42923;53.220;6.528;2024-03-08T08:24:30;27.73;;;23.43;;
52964;SDS011;42923;53.220;6.528;2024-03-08T08:26:56;25.20;;;22.47;;
52964;SDS011;42923;53.220;6.528;2024-03-08T08:29:22;24.27;;;21.73;;
52964;SDS011;42923;53.220;6.528;2024-03-08T08:31:48;26.40;;;22.73;;
52964;SDS011;42923;53.220;6.528;2024-03-08T08:34:15;26.20;;;23.30;;
52964;SDS011;42923;53.220;6.528;2024-03-08T08:36:44;25.63;;;22.92;;
52964;SDS011;42923;53.220;6.528;2024-03-08T08:39:10;26.77;;;23.97;;
52964;SDS011;42923;53.220;6.528;2024-03-08T08:41:39;26.05;;;23.27;;
52964;SDS011;42923;53.220;6.528;2024-03-08T08:44:07;24.40;;;21.80;;
52964;SDS011;42923;53.220;6.528;2024-03-08T08:46:38;26.40;;;22.77;;
52964;SDS011;42923;53.220;6.528;2024-03-08T08:49:04;24.10;;;21.50;;
52964;SDS011;42923;53.220;6.528;2024-03-08T08:51:31;27.10;;;22.80;;
52964;SDS011;42923;53.220;6.528;2024-03-08T08:53:58;25.70;;;22.73;;
52964;SDS011;42923;53.220;6.528;2024-03-08T08:56:24;27.63;;;22.90;;
52964;SDS011;42923;53.220;6.528;2024-03-08T08:58:51;24.50;;;21.85;;
52964;SDS011;42923;53.220;6.528;2024-03-08T09:01:18;26.20;;;23.42;;
52964;SDS011;42923;53.220;6.528;2024-03-08T09:03:44;24.23;;;21.67;;
52964;SDS011;42923;53.220;6.528;2024-03-08T09:06:12;24.67;;;22.10;;
52964;SDS011;42923;53.220;6.528;2024-03-08T09:08:41;25.90;;;23.20;;
52964;SDS011;42923;53.220;6.528;2024-03-08T09:11:07;25.83;;;23.05;;
52964;SDS011;42923;53.220;6.528;2024-03-08T09:13:33;24.08;;;21.38;;
52964;SDS011;42923;53.220;6.528;2024-03-08T09:15:59;24.08;;;20.90;;
52964;SDS011;42923;53.220;6.528;2024-03-08T09:18:25;24.87;;;22.17;;
52964;SDS011;42923;53.220;6.528;2024-03-08T09:20:51;23.77;;;21.35;;
52964;SDS011;42923;53.220;6.528;2024-03-08T09:23:21;23.20;;;20.63;;
52964;SDS011;42923;53.220;6.528;2024-03-08T09:25:47;23.60;;;21.08;;
52964;SDS011;42923;53.220;6.528;2024-03-08T09:28:13;23.37;;;20.80;;
52964;SDS011;42923;53.220;6.528;2024-03-08T09:30:39;25.73;;;23.00;;
52964;SDS011;42923;53.220;6.528;2024-03-08T09:33:05;25.73;;;22.48;;
52964;SDS011;42923;53.220;6.528;2024-03-08T09:35:31;25.27;;;22.63;;
52964;SDS011;42923;53.220;6.528;2024-03-08T09:37:57;25.20;;;22.60;;
52964;SDS011;42923;53.220;6.528;2024-03-08T09:40:23;26.75;;;23.85;;
52964;SDS011;42923;53.220;6.528;2024-03-08T09:42:50;25.45;;;22.02;;
52964;SDS011;42923;53.220;6.528;2024-03-08T09:45:17;25.42;;;22.73;;
52964;SDS011;42923;53.220;6.528;2024-03-08T09:47:47;26.02;;;23.33;;
52964;SDS011;42923;53.220;6.528;2024-03-08T09:50:16;30.00;;;26.80;;
52964;SDS011;42923;53.220;6.528;2024-03-08T09:52:43;26.15;;;23.45;;
52964;SDS011;42923;53.220;6.528;2024-03-08T09:55:11;26.40;;;23.60;;
52964;SDS011;42923;53.220;6.528;2024-03-08T09:57:37;26.58;;;23.67;;
52964;SDS011;42923;53.220;6.528;2024-03-08T10:00:03;26.70;;;23.83;;
52964;SDS011;42923;53.220;6.528;2024-03-08T10:02:49;26.17;;;23.37;;
52964;SDS011;42923;53.220;6.528;2024-03-08T10:05:17;26.45;;;23.75;;
52964;SDS011;42923;53.220;6.528;2024-03-08T10:07:43;25.27;;;22.58;;
52964;SDS011;42923;53.220;6.528;2024-03-08T10:10:09;26.33;;;22.63;;
52964;SDS011;42923;53.220;6.528;2024-03-08T10:12:37;26.90;;;23.40;;
52964;SDS011;42923;53.220;6.528;2024-03-08T10:15:06;28.58;;;24.13;;
52964;SDS011;42923;53.220;6.528;2024-03-08T10:17:35;26.35;;;23.55;;
52964;SDS011;42923;53.220;6.528;2024-03-08T10:20:00;24.85;;;22.35;;
52964;SDS011;42923;53.220;6.528;2024-03-08T10:22:27;25.88;;;23.23;;
52964;SDS011;42923;53.220;6.528;2024-03-08T10:24:54;24.52;;;22.02;;
52964;SDS011;42923;53.220;6.528;2024-03-08T10:27:20;27.43;;;23.23;;
52964;SDS011;42923;53.220;6.528;2024-03-08T10:29:47;26.20;;;23.00;;
52964;SDS011;42923;53.220;6.528;2024-03-08T10:32:13;25.30;;;22.80;;
52964;SDS011;42923;53.220;6.528;2024-03-08T10:34:39;24.37;;;21.87;;
52964;SDS011;42923;53.220;6.528;2024-03-08T10:37:07;25.50;;;22.87;;
52964;SDS011;42923;53.220;6.528;2024-03-08T10:39:37;25.00;;;20.33;;
52964;SDS011;42923;53.220;6.528;2024-03-08T10:42:05;25.88;;;22.88;;
52964;SDS011;42923;53.220;6.528;2024-03-08T10:44:40;25.13;;;22.53;;
52964;SDS011;42923;53.220;6.528;2024-03-08T10:47:26;25.15;;;21.38;;
52964;SDS011;42923;53.220;6.528;2024-03-08T10:50:18;25.38;;;22.67;;
52964;SDS011;42923;53.220;6.528;2024-03-08T10:52:48;26.13;;;23.50;;
52964;SDS011;42923;53.220;6.528;2024-03-08T10:55:16;23.42;;;21.02;;
52964;SDS011;42923;53.220;6.528;2024-03-08T10:57:43;24.58;;;21.90;;
52964;SDS011;42923;53.220;6.528;2024-03-08T11:00:09;25.00;;;22.33;;
52964;SDS011;42923;53.220;6.528;2024-03-08T11:02:37;25.15;;;22.65;;
52964;SDS011;42923;53.220;6.528;2024-03-08T11:05:03;25.83;;;23.23;;
52964;SDS011;42923;53.220;6.528;2024-03-08T11:07:34;25.40;;;22.80;;
52964;SDS011;42923;53.220;6.528;2024-03-08T11:10:03;25.15;;;22.50;;
52964;SDS011;42923;53.220;6.528;2024-03-08T11:12:35;24.23;;;21.73;;
52964;SDS011;42923;53.220;6.528;2024-03-08T11:15:03;24.20;;;21.83;;
52964;SDS011;42923;53.220;6.528;2024-03-08T11:20:10;24.25;;;21.77;;
52964;SDS011;42923;53.220;6.528;2024-03-08T11:22:52;24.40;;;21.85;;
52964;SDS011;42923;53.220;6.528;2024-03-08T11:28:17;23.35;;;20.90;;
52964;SDS011;42923;53.220;6.528;2024-03-08T11:30:45;23.88;;;21.38;;
52964;SDS011;42923;53.220;6.528;2024-03-08T11:33:15;24.75;;;22.27;;
52964;SDS011;42923;53.220;6.528;2024-03-08T11:35:41;24.07;;;21.67;;
52964;SDS011;42923;53.220;6.528;2024-03-08T11:38:11;22.80;;;20.60;;
52964;SDS011;42923;53.220;6.528;2024-03-08T11:40:38;24.13;;;21.83;;
52964;SDS011;42923;53.220;6.528;2024-03-08T11:43:05;24.33;;;21.80;;
52964;SDS011;42923;53.220;6.528;2024-03-08T11:45:35;24.63;;;22.15;;
52964;SDS011;42923;53.220;6.528;2024-03-08T11:48:02;24.17;;;21.77;;
52964;SDS011;42923;53.220;6.528;2024-03-08T11:50:29;23.05;;;20.75;;
52964;SDS011;42923;53.220;6.528;2024-03-08T11:53:00;25.97;;;23.30;;
52964;SDS011;42923;53.220;6.528;2024-03-08T11:55:27;24.03;;;21.63;;
52964;SDS011;42923;53.220;6.528;2024-03-08T11:58:03;23.58;;;21.27;;
52964;SDS011;42923;53.220;6.528;2024-03-08T12:00:33;24.05;;;21.55;;
52964;SDS011;42923;53.220;6.528;2024-03-08T12:03:06;24.60;;;22.23;;
52964;SDS011;42923;53.220;6.528;2024-03-08T12:05:34;24.27;;;21.87;;
52964;SDS011;42923;53.220;6.528;2024-03-08T12:08:04;24.83;;;22.38;;
52964;SDS011;42923;53.220;6.528;2024-03-08T12:10:32;25.95;;;23.17;;
52964;SDS011;42923;53.220;6.528;2024-03-08T12:13:00;25.00;;;22.42;;
52964;SDS011;42923;53.220;6.528;2024-03-08T12:15:26;24.48;;;21.95;;
52964;SDS011;42923;53.220;6.528;2024-03-08T12:17:54;23.53;;;21.23;;
52964;SDS011;42923;53.220;6.528;2024-03-08T12:20:24;23.77;;;21.48;;
52964;SDS011;42923;53.220;6.528;2024-03-08T12:22:52;25.80;;;23.30;;
52964;SDS011;42923;53.220;6.528;2024-03-08T12:25:19;25.00;;;22.60;;
52964;SDS011;42923;53.220;6.528;2024-03-08T12:27:45;25.10;;;22.70;;
52964;SDS011;42923;53.220;6.528;2024-03-08T12:30:16;23.05;;;20.85;;
52964;SDS011;42923;53.220;6.528;2024-03-08T12:32:56;23.45;;;21.17;;
52964;SDS011;42923;53.220;6.528;2024-03-08T12:35:24;24.20;;;21.77;;
52964;SDS011;42923;53.220;6.528;2024-03-08T12:37:54;23.58;;;21.23;;
52964;SDS011;42923;53.220;6.528;2024-03-08T12:40:28;22.35;;;20.25;;
52964;SDS011;42923;53.220;6.528;2024-03-08T12:43:01;22.38;;;19.98;;
52964;SDS011;42923;53.220;6.528;2024-03-08T12:45:28;23.48;;;21.23;;
52964;SDS011;42923;53.220;6.528;2024-03-08T12:47:54;22.90;;;20.52;;
52964;SDS011;42923;53.220;6.528;2024-03-08T12:50:23;22.98;;;20.77;;
52964;SDS011;42923;53.220;6.528;2024-03-08T12:52:51;24.75;;;22.15;;
52964;SDS011;42923;53.220;6.528;2024-03-08T12:55:20;23.27;;;21.02;;
52964;SDS011;42923;53.220;6.528;2024-03-08T12:57:46;22.57;;;20.30;;
52964;SDS011;42923;53.220;6.528;2024-03-08T13:00:14;22.30;;;20.10;;
52964;SDS011;42923;53.220;6.528;2024-03-08T13:02:46;23.98;;;21.48;;
52964;SDS011;42923;53.220;6.528;2024-03-08T13:05:12;23.65;;;21.25;;
52964;SDS011;42923;53.220;6.528;2024-03-08T13:07:39;24.17;;;21.92;;
52964;SDS011;42923;53.220;6.528;2024-03-08T13:10:11;22.85;;;20.65;;
52964;SDS011;42923;53.220;6.528;2024-03-08T13:12:40;23.27;;;21.08;;
52964;SDS011;42923;53.220;6.528;2024-03-08T13:15:09;24.20;;;21.70;;
52964;SDS011;42923;53.220;6.528;2024-03-08T13:17:40;23.10;;;20.80;;
52964;SDS011;42923;53.220;6.528;2024-03-08T13:20:07;22.67;;;20.27;;
52964;SDS011;42923;53.220;6.528;2024-03-08T13:22:33;22.73;;;20.53;;
52964;SDS011;42923;53.220;6.528;2024-03-08T13:24:59;21.17;;;19.07;;
52964;SDS011;42923;53.220;6.528;2024-03-08T13:27:27;22.15;;;20.00;;
52964;SDS011;42923;53.220;6.528;2024-03-08T13:29:53;20.45;;;18.65;;
52964;SDS011;42923;53.220;6.528;2024-03-08T13:32:19;20.35;;;18.40;;
52964;SDS011;42923;53.220;6.528;2024-03-08T13:34:49;21.38;;;19.35;;
52964;SDS011;42923;53.220;6.528;2024-03-08T13:37:16;19.73;;;17.83;;
52964;SDS011;42923;53.220;6.528;2024-03-08T13:39:42;19.95;;;18.05;;
52964;SDS011;42923;53.220;6.528;2024-03-08T13:42:11;21.85;;;19.00;;
52964;SDS011;42923;53.220;6.528;2024-03-08T13:44:45;20.45;;;18.65;;
52964;SDS011;42923;53.220;6.528;2024-03-08T13:47:15;19.50;;;17.65;;
52964;SDS011;42923;53.220;6.528;2024-03-08T13:49:41;20.90;;;18.92;;
52964;SDS011;42923;53.220;6.528;2024-03-08T13:52:08;19.50;;;17.63;;
52964;SDS011;42923;53.220;6.528;2024-03-08T13:54:35;19.95;;;17.95;;
52964;SDS011;42923;53.220;6.528;2024-03-08T13:57:02;19.67;;;17.80;;
52964;SDS011;42923;53.220;6.528;2024-03-08T13:59:32;19.10;;;17.30;;
52964;SDS011;42923;53.220;6.528;2024-03-08T14:01:59;19.48;;;17.40;;
52964;SDS011;42923;53.220;6.528;2024-03-08T14:04:27;19.23;;;17.43;;
52964;SDS011;42923;53.220;6.528;2024-03-08T14:06:53;20.00;;;18.02;;
52964;SDS011;42923;53.220;6.528;2024-03-08T14:09:28;19.65;;;17.83;;
52964;SDS011;42923;53.220;6.528;2024-03-08T14:11:54;19.73;;;17.85;;
52964;SDS011;42923;53.220;6.528;2024-03-08T14:14:21;19.70;;;17.83;;
52964;SDS011;42923;53.220;6.528;2024-03-08T14:16:48;19.35;;;17.42;;
52964;SDS011;42923;53.220;6.528;2024-03-08T14:19:18;19.52;;;17.52;;
52964;SDS011;42923;53.220;6.528;2024-03-08T14:21:44;19.95;;;17.42;;
52964;SDS011;42923;53.220;6.528;2024-03-08T14:24:10;17.97;;;16.27;;
52964;SDS011;42923;53.220;6.528;2024-03-08T14:26:35;18.23;;;16.50;;
52964;SDS011;42923;53.220;6.528;2024-03-08T14:29:04;18.17;;;16.27;;